createdAt,value
2023-03-22T00:01:12.410Z,15.40
2023-03-22T00:04:01.553Z,15.40
2023-03-22T00:06:49.951Z,15.40
2023-03-22T00:09:38.404Z,15.50
2023-03-22T00:12:28.234Z,15.50
2023-03-22T00:15:16.796Z,15.50
2023-03-22T00:18:05.810Z,15.50
2023-03-22T00:20:56.838Z,15.50
2023-03-22T00:23:45.975Z,15.50
2023-03-22T00:26:34.372Z,15.50
2023-03-22T00:29:24.202Z,15.40
2023-03-22T00:32:12.724Z,15.30
2023-03-22T00:35:01.873Z,15.40
2023-03-22T00:37:51.614Z,15.50
2023-03-22T00:40:40.407Z,15.40
2023-03-22T00:43:29.010Z,15.40
2023-03-22T00:46:21.707Z,15.50
2023-03-22T00:49:10.307Z,15.50
2023-03-22T00:51:58.772Z,15.30
2023-03-22T00:54:47.634Z,15.20
2023-03-22T00:57:36.322Z,15.20
2023-03-22T01:00:24.802Z,15.30
2023-03-22T01:03:16.137Z,15.30
2023-03-22T01:06:04.637Z,15.20
2023-03-22T01:08:55.219Z,15.00
2023-03-22T01:11:43.971Z,15.10
2023-03-22T01:14:32.591Z,15.30
2023-03-22T01:17:21.254Z,15.20
2023-03-22T01:20:12.631Z,15.20
2023-03-22T01:23:01.165Z,15.00
2023-03-22T01:25:49.815Z,15.00
2023-03-22T01:28:40.562Z,15.00
2023-03-22T01:31:29.134Z,15.00
2023-03-22T01:34:17.663Z,15.00
2023-03-22T01:37:07.540Z,15.10
2023-03-22T01:39:56.122Z,15.10
2023-03-22T01:42:44.647Z,15.00
2023-03-22T01:45:41.986Z,15.10
2023-03-22T01:48:34.527Z,15.20
2023-03-22T01:51:25.391Z,15.20
2023-03-22T01:54:21.952Z,15.20
2023-03-22T01:57:10.953Z,14.80
2023-03-22T01:59:59.442Z,14.80
2023-03-22T02:02:50.431Z,15.00
2023-03-22T02:05:39.097Z,15.10
2023-03-22T02:08:27.812Z,15.20
2023-03-22T02:11:19.137Z,15.20
2023-03-22T02:14:27.183Z,15.20
2023-03-22T02:17:28.576Z,15.20
2023-03-22T02:20:49.278Z,15.20
2023-03-22T02:24:10.059Z,15.20
2023-03-22T02:27:39.887Z,15.20
2023-03-22T02:30:56.318Z,15.10
2023-03-22T02:34:07.491Z,15.10
2023-03-22T02:37:40.565Z,15.00
2023-03-22T02:40:35.139Z,14.90
2023-03-22T02:43:34.586Z,14.90
2023-03-22T02:46:26.510Z,14.70
2023-03-22T02:49:22.828Z,14.70
2023-03-22T02:52:17.507Z,16.80
2023-03-22T02:55:13.057Z,14.70
2023-03-22T02:58:07.628Z,14.80
2023-03-22T03:01:00.299Z,14.80
2023-03-22T03:03:50.966Z,14.80
2023-03-22T03:06:46.240Z,14.80
2023-03-22T03:09:35.457Z,14.90
2023-03-22T03:12:26.532Z,14.90
2023-03-22T03:15:20.273Z,15.00
2023-03-22T03:18:22.621Z,15.00
2023-03-22T03:21:21.985Z,14.90
2023-03-22T03:24:21.947Z,14.90
2023-03-22T03:27:16.974Z,14.90
2023-03-22T03:30:13.061Z,14.80
2023-03-22T03:33:10.576Z,14.80
2023-03-22T03:36:03.079Z,14.70
2023-03-22T03:38:54.569Z,14.70
2023-03-22T03:41:45.374Z,14.70
2023-03-22T03:44:36.160Z,14.70
2023-03-22T03:47:25.496Z,14.70
2023-03-22T03:50:17.561Z,14.70
2023-03-22T03:53:06.360Z,14.70
2023-03-22T03:55:54.876Z,14.50
2023-03-22T03:58:43.351Z,14.40
2023-03-22T04:01:31.914Z,14.40
2023-03-22T04:04:26.540Z,14.50
2023-03-22T04:07:16.683Z,14.60
2023-03-22T04:10:06.213Z,14.70
2023-03-22T04:12:54.711Z,14.50
2023-03-22T04:15:43.154Z,14.50
2023-03-22T04:18:32.188Z,14.50
2023-03-22T04:21:21.794Z,14.40
2023-03-22T04:24:11.678Z,14.50
2023-03-22T04:27:00.136Z,14.40
2023-03-22T04:29:50.936Z,14.40
2023-03-22T04:32:39.893Z,14.30
2023-03-22T04:35:28.464Z,14.30
2023-03-22T04:38:17.899Z,14.30
2023-03-22T04:41:08.318Z,14.20
2023-03-22T04:43:57.631Z,14.20
2023-03-22T04:46:46.250Z,14.10
2023-03-22T04:49:34.902Z,14.10
2023-03-22T04:52:23.355Z,14.10
2023-03-22T04:55:11.911Z,14.10
2023-03-22T04:58:01.842Z,14.00
2023-03-22T05:00:52.798Z,14.00
2023-03-22T05:03:42.974Z,14.00
2023-03-22T05:06:32.741Z,14.00
2023-03-22T05:09:23.346Z,14.00
2023-03-22T05:12:12.028Z,14.10
2023-03-22T05:15:04.218Z,14.10
2023-03-22T05:17:52.639Z,14.00
2023-03-22T05:20:41.434Z,13.90
2023-03-22T05:23:30.399Z,13.70
2023-03-22T05:26:20.462Z,13.80
2023-03-22T05:29:09.477Z,13.60
2023-03-22T05:31:59.377Z,13.60
2023-03-22T05:34:48.582Z,13.60
2023-03-22T05:37:38.170Z,13.60
2023-03-22T05:40:27.933Z,13.40
2023-03-22T05:43:16.652Z,13.40
2023-03-22T05:46:07.060Z,13.50
2023-03-22T05:48:56.870Z,13.60
2023-03-22T05:51:45.326Z,13.60
2023-03-22T05:54:34.090Z,13.60
2023-03-22T05:57:22.535Z,13.60
2023-03-22T06:00:15.127Z,13.70
2023-03-22T06:03:05.429Z,13.40
2023-03-22T06:05:55.912Z,12.90
2023-03-22T06:08:45.430Z,12.70
2023-03-22T06:11:35.439Z,12.90
2023-03-22T06:14:23.832Z,13.10
2023-03-22T06:17:12.513Z,13.20
2023-03-22T06:20:01.204Z,13.30
2023-03-22T06:22:51.053Z,13.40
2023-03-22T06:25:39.544Z,13.40
2023-03-22T06:28:29.960Z,13.50
2023-03-22T06:31:18.519Z,13.60
2023-03-22T06:34:07.194Z,13.50
2023-03-22T06:36:55.897Z,13.50
2023-03-22T06:39:46.204Z,13.50
2023-03-22T06:42:34.680Z,13.50
2023-03-22T06:45:23.497Z,13.70
2023-03-22T06:48:12.052Z,13.90
2023-03-22T06:51:00.865Z,14.00
2023-03-22T06:53:49.587Z,14.10
2023-03-22T06:56:39.465Z,14.20
2023-03-22T06:59:28.314Z,14.30
2023-03-22T07:02:16.990Z,14.10
2023-03-22T07:05:06.141Z,13.80
2023-03-22T07:07:54.696Z,13.70
2023-03-22T07:10:43.840Z,14.00
2023-03-22T07:13:33.851Z,14.20
2023-03-22T07:16:22.607Z,14.40
2023-03-22T07:19:12.054Z,14.50
2023-03-22T07:22:00.561Z,14.50
2023-03-22T07:24:57.030Z,14.60
2023-03-22T07:27:47.296Z,14.80
2023-03-22T07:30:37.716Z,14.80
2023-03-22T07:33:26.392Z,14.70
2023-03-22T07:36:14.891Z,14.70
2023-03-22T07:39:03.323Z,15.00
2023-03-22T07:41:52.038Z,15.30
2023-03-22T07:44:40.556Z,15.50
2023-03-22T07:47:40.469Z,15.70
2023-03-22T07:50:29.748Z,15.70
2023-03-22T07:53:18.428Z,15.50
2023-03-22T07:56:07.929Z,15.60
2023-03-22T07:58:56.440Z,15.70
2023-03-22T08:01:45.783Z,15.90
2023-03-22T08:04:35.645Z,16.10
2023-03-22T08:07:25.103Z,16.30
2023-03-22T08:10:13.666Z,16.40
2023-03-22T08:13:02.222Z,16.50
2023-03-22T08:15:50.723Z,16.60
2023-03-22T08:18:39.251Z,16.80
2023-03-22T08:21:29.122Z,16.90
2023-03-22T08:24:17.896Z,17.20
2023-03-22T08:27:06.840Z,17.30
2023-03-22T08:29:55.297Z,17.40
2023-03-22T08:32:43.787Z,17.50
2023-03-22T08:35:32.477Z,17.50
2023-03-22T08:38:22.396Z,17.50
2023-03-22T08:41:10.879Z,17.70
2023-03-22T08:43:59.414Z,17.80
2023-03-22T08:46:47.964Z,17.80
2023-03-22T08:49:36.537Z,17.90
2023-03-22T08:52:25.085Z,17.90
2023-03-22T08:55:17.447Z,18.00
2023-03-22T08:58:05.935Z,18.00
2023-03-22T09:00:54.531Z,18.00
2023-03-22T09:03:44.483Z,17.80
2023-03-22T09:06:34.168Z,17.80
2023-03-22T09:09:22.584Z,17.80
2023-03-22T09:12:12.401Z,17.90
2023-03-22T09:15:00.882Z,17.90
2023-03-22T09:17:49.459Z,18.00
2023-03-22T09:20:38.380Z,18.10
2023-03-22T09:23:27.188Z,18.10
2023-03-22T09:26:16.136Z,18.30
2023-03-22T09:29:05.987Z,18.40
2023-03-22T09:31:54.557Z,18.50
2023-03-22T09:34:43.130Z,18.60
2023-03-22T09:37:31.800Z,18.60
2023-03-22T09:40:21.128Z,18.70
2023-03-22T09:43:13.796Z,18.80
2023-03-22T09:46:07.632Z,18.80
2023-03-22T09:48:57.736Z,19.00
2023-03-22T09:51:48.057Z,19.00
2023-03-22T09:54:38.875Z,19.10
2023-03-22T09:57:32.514Z,19.20
2023-03-22T10:00:28.140Z,19.30
2023-03-22T10:03:26.679Z,19.50
2023-03-22T10:06:20.380Z,19.60
2023-03-22T10:09:13.951Z,19.70
2023-03-22T10:12:11.323Z,19.80
2023-03-22T10:15:06.114Z,19.90
2023-03-22T10:17:57.337Z,20.00
2023-03-22T10:20:50.465Z,20.10
2023-03-22T10:23:45.676Z,20.20
2023-03-22T10:26:38.061Z,20.30
2023-03-22T10:29:33.407Z,20.30
2023-03-22T10:32:30.396Z,20.40
2023-03-22T10:35:19.212Z,20.60
2023-03-22T10:38:18.519Z,20.70
2023-03-22T10:41:08.473Z,20.90
2023-03-22T10:43:59.912Z,21.00
2023-03-22T10:46:52.635Z,21.10
2023-03-22T10:49:45.844Z,21.20
2023-03-22T10:52:41.263Z,21.30
2023-03-22T10:55:31.288Z,21.50
2023-03-22T10:58:21.631Z,21.70
2023-03-22T11:01:12.649Z,21.80
2023-03-22T11:04:07.817Z,22.00
2023-03-22T11:06:56.564Z,22.10
2023-03-22T11:09:44.997Z,22.20
2023-03-22T11:12:35.036Z,22.20
2023-03-22T11:15:29.246Z,22.50
2023-03-22T11:18:19.566Z,22.40
2023-03-22T11:21:11.868Z,22.50
2023-03-22T11:24:03.916Z,22.70
2023-03-22T11:27:04.996Z,23.00
2023-03-22T11:29:58.575Z,23.20
2023-03-22T11:32:47.185Z,23.30
2023-03-22T11:35:38.495Z,23.50
2023-03-22T11:38:36.776Z,23.60
2023-03-22T11:41:27.491Z,23.80
2023-03-22T11:44:18.755Z,23.80
2023-03-22T11:47:10.052Z,23.90
2023-03-22T11:49:58.768Z,23.90
2023-03-22T11:52:49.523Z,24.00
2023-03-22T11:55:38.375Z,24.20
2023-03-22T11:58:29.556Z,24.40
2023-03-22T12:01:22.357Z,24.60
2023-03-22T12:04:17.331Z,24.80
2023-03-22T12:07:14.081Z,24.90
2023-03-22T12:10:07.623Z,25.10
2023-03-22T12:13:00.030Z,25.20
2023-03-22T12:15:53.770Z,25.20
2023-03-22T12:18:48.604Z,25.30
2023-03-22T12:21:38.722Z,25.40
2023-03-22T12:24:29.939Z,25.50
2023-03-22T12:27:23.109Z,25.50
2023-03-22T12:30:16.305Z,25.10
2023-03-22T12:33:10.079Z,25.10
2023-03-22T12:36:02.852Z,25.00
2023-03-22T12:38:55.996Z,24.90
2023-03-22T12:41:49.610Z,25.00
2023-03-22T12:44:42.313Z,25.20
2023-03-22T12:47:36.222Z,25.30
2023-03-22T12:50:27.408Z,25.50
2023-03-22T12:53:18.931Z,25.70
2023-03-22T12:56:11.003Z,25.80
2023-03-22T12:59:04.466Z,24.50
2023-03-22T13:01:57.553Z,25.90
2023-03-22T13:04:54.395Z,25.80
2023-03-22T13:07:54.295Z,25.80
2023-03-22T13:11:03.452Z,25.90
2023-03-22T13:13:53.346Z,25.80
2023-03-22T13:16:54.342Z,25.90
2023-03-22T13:19:53.619Z,26.10
2023-03-22T13:23:04.136Z,26.10
2023-03-22T13:26:06.190Z,26.10
2023-03-22T13:29:01.051Z,26.20
2023-03-22T13:31:58.319Z,26.10
2023-03-22T13:34:50.589Z,26.10
2023-03-22T13:37:47.961Z,25.70
2023-03-22T13:40:44.368Z,25.80
2023-03-22T13:43:36.511Z,25.70
2023-03-22T13:46:46.585Z,25.70
2023-03-22T13:49:48.397Z,25.70
2023-03-22T13:52:41.219Z,25.70
2023-03-22T13:55:58.162Z,25.90
2023-03-22T13:58:54.049Z,26.00
2023-03-22T14:01:47.803Z,25.80
2023-03-22T14:04:42.567Z,25.80
2023-03-22T14:07:36.283Z,25.90
2023-03-22T14:10:28.247Z,25.70
2023-03-22T14:13:20.490Z,25.60
2023-03-22T14:16:15.020Z,25.60
2023-03-22T14:19:06.349Z,25.60
